createdAt,value
2022-12-18T00:02:22.914Z,-2.08
2022-12-18T00:04:52.045Z,-2.06
2022-12-18T00:07:19.743Z,-2.07
2022-12-18T00:09:47.689Z,-2.07
2022-12-18T00:14:43.476Z,-2.06
2022-12-18T00:17:11.108Z,-2.06
2022-12-18T00:19:38.681Z,-2.08
2022-12-18T00:22:08.095Z,-2.06
2022-12-18T00:24:35.781Z,-2.07
2022-12-18T00:27:03.391Z,-2.08
2022-12-18T00:29:31.002Z,-2.07
2022-12-18T00:31:58.803Z,-2.06
2022-12-18T00:34:26.415Z,-2.07
2022-12-18T00:36:54.248Z,-2.06
2022-12-18T00:39:24.598Z,-2.05
2022-12-18T00:42:10.032Z,-2.05
2022-12-18T00:44:37.678Z,-2.06
2022-12-18T00:47:05.338Z,-2.06
2022-12-18T00:49:33.000Z,-2.08
2022-12-18T00:52:00.885Z,-2.06
2022-12-18T00:54:29.923Z,-2.07
2022-12-18T00:56:58.024Z,-2.06
2022-12-18T00:59:25.875Z,-2.08
2022-12-18T01:01:53.655Z,-2.06
2022-12-18T01:04:21.888Z,-2.06
2022-12-18T01:06:49.465Z,-2.06
2022-12-18T01:09:17.133Z,-2.05
2022-12-18T01:11:46.106Z,-2.04
2022-12-18T01:14:13.786Z,-2.05
2022-12-18T01:16:41.492Z,-2.05
2022-12-18T01:19:09.594Z,-2.05
2022-12-18T01:21:37.921Z,-2.06
2022-12-18T01:24:06.384Z,-2.08
2022-12-18T01:26:34.878Z,-2.08
2022-12-18T01:29:03.992Z,-2.09
2022-12-18T01:31:32.530Z,-2.11
2022-12-18T01:34:02.259Z,-2.11
2022-12-18T01:36:31.120Z,-2.12
2022-12-18T01:39:00.839Z,-2.13
2022-12-18T01:41:51.802Z,-2.14
2022-12-18T01:44:38.029Z,-2.15
2022-12-18T01:47:07.303Z,-2.17
2022-12-18T01:49:34.886Z,-2.18
2022-12-18T01:52:02.619Z,-2.19
2022-12-18T01:54:30.837Z,-2.19
2022-12-18T01:56:58.501Z,-2.20
2022-12-18T01:59:26.096Z,-2.20
2022-12-18T02:01:54.070Z,-2.21
2022-12-18T02:04:24.668Z,-2.20
2022-12-18T02:06:55.594Z,-2.21
2022-12-18T02:09:28.622Z,-2.21
2022-12-18T02:12:00.897Z,-2.23
2022-12-18T02:14:33.816Z,-2.24
2022-12-18T02:17:04.209Z,-2.25
2022-12-18T02:19:57.033Z,-2.28
2022-12-18T02:22:28.611Z,-2.30
2022-12-18T02:25:03.284Z,-2.31
2022-12-18T02:27:33.331Z,-2.32
2022-12-18T02:30:02.020Z,-2.33
2022-12-18T02:32:33.623Z,-2.33
2022-12-18T02:35:01.565Z,-2.33
2022-12-18T02:37:32.577Z,-2.32
2022-12-18T02:40:04.368Z,-2.32
2022-12-18T02:42:34.774Z,-2.32
2022-12-18T02:45:04.581Z,-2.31
2022-12-18T02:47:34.521Z,-2.31
2022-12-18T02:50:07.327Z,-2.32
2022-12-18T02:52:39.363Z,-2.31
2022-12-18T02:55:15.313Z,-2.32
2022-12-18T02:57:51.009Z,-2.31
2022-12-18T03:00:23.675Z,-2.30
2022-12-18T03:02:56.398Z,-2.30
2022-12-18T03:05:26.848Z,-2.30
2022-12-18T03:07:58.559Z,-2.30
2022-12-18T03:10:31.168Z,-2.30
2022-12-18T03:13:04.905Z,-2.30
2022-12-18T03:15:37.217Z,-2.30
2022-12-18T03:18:12.810Z,-2.31
2022-12-18T03:20:43.298Z,-2.32
2022-12-18T03:23:16.159Z,-2.32
2022-12-18T03:25:49.385Z,-2.32
2022-12-18T03:28:21.683Z,-2.33
2022-12-18T03:30:56.092Z,-2.33
2022-12-18T03:33:26.008Z,-2.35
2022-12-18T03:35:55.520Z,-2.35
2022-12-18T03:38:23.902Z,-2.35
2022-12-18T03:40:58.968Z,-2.36
2022-12-18T03:43:33.871Z,-2.36
2022-12-18T03:46:05.217Z,-2.36
2022-12-18T03:48:36.402Z,-2.36
2022-12-18T03:51:12.436Z,-2.37
2022-12-18T03:53:43.880Z,-2.38
2022-12-18T03:56:15.136Z,-2.36
2022-12-18T03:58:45.610Z,-2.36
2022-12-18T04:01:22.028Z,-2.37
2022-12-18T04:03:51.630Z,-2.37
2022-12-18T04:06:21.043Z,-2.38
2022-12-18T04:08:48.950Z,-2.37
2022-12-18T04:11:21.569Z,-2.37
2022-12-18T04:13:50.956Z,-2.35
2022-12-18T04:16:23.974Z,-2.37
2022-12-18T04:18:55.682Z,-2.37
2022-12-18T04:21:25.722Z,-2.37
2022-12-18T04:23:54.155Z,-2.37
2022-12-18T04:26:23.829Z,-2.37
2022-12-18T04:29:02.944Z,-2.39
2022-12-18T04:31:30.659Z,-2.39
2022-12-18T04:33:58.415Z,-2.39
2022-12-18T04:36:27.788Z,-2.38
2022-12-18T04:38:56.276Z,-2.40
2022-12-18T04:41:24.369Z,-2.38
2022-12-18T04:43:54.548Z,-2.40
2022-12-18T04:46:23.662Z,-2.41
2022-12-18T04:48:51.248Z,-2.40
2022-12-18T04:51:24.646Z,-2.44
2022-12-18T04:53:53.951Z,-2.43
2022-12-18T04:56:21.528Z,-2.42
2022-12-18T04:58:49.135Z,-2.43
2022-12-18T05:01:17.545Z,-2.44
2022-12-18T05:03:46.850Z,-2.45
2022-12-18T05:06:14.431Z,-2.45
2022-12-18T05:08:42.093Z,-2.46
2022-12-18T05:11:10.689Z,-2.45
2022-12-18T05:13:39.286Z,-2.46
2022-12-18T05:16:07.821Z,-2.46
2022-12-18T05:18:35.733Z,-2.46
2022-12-18T05:21:04.708Z,-2.46
2022-12-18T05:23:36.553Z,-2.46
2022-12-18T05:26:05.968Z,-2.46
2022-12-18T05:28:35.731Z,-2.46
2022-12-18T05:31:04.588Z,-2.47
2022-12-18T05:33:32.951Z,-2.48
2022-12-18T05:36:01.575Z,-2.47
2022-12-18T05:38:30.985Z,-2.48
2022-12-18T05:40:58.743Z,-2.45
2022-12-18T05:43:27.339Z,-2.44
2022-12-18T05:45:55.460Z,-2.45
2022-12-18T05:48:23.651Z,-2.45
2022-12-18T05:50:51.870Z,-2.45
2022-12-18T05:53:20.679Z,-2.43
2022-12-18T05:55:49.803Z,-2.42
2022-12-18T05:58:17.701Z,-2.40
2022-12-18T06:00:46.426Z,-2.40
2022-12-18T06:03:15.348Z,-2.39
2022-12-18T06:05:44.239Z,-2.37
2022-12-18T06:08:11.879Z,-2.35
2022-12-18T06:10:39.547Z,-2.33
2022-12-18T06:13:08.748Z,-2.32
2022-12-18T06:15:38.471Z,-2.30
2022-12-18T06:18:06.085Z,-2.30
2022-12-18T06:20:34.182Z,-2.28
2022-12-18T06:23:01.837Z,-2.26
2022-12-18T06:25:29.412Z,-2.25
2022-12-18T06:27:56.998Z,-2.24
2022-12-18T06:30:25.959Z,-2.22
2022-12-18T06:32:56.692Z,-2.22
2022-12-18T06:35:24.489Z,-2.21
2022-12-18T06:37:52.102Z,-2.20
2022-12-18T06:40:20.087Z,-2.20
2022-12-18T06:42:47.664Z,-2.20
2022-12-18T06:45:15.386Z,-2.21
2022-12-18T06:47:44.455Z,-2.22
2022-12-18T06:50:12.319Z,-2.24
2022-12-18T06:52:40.493Z,-2.23
2022-12-18T06:55:08.976Z,-2.26
2022-12-18T06:57:36.522Z,-2.28
2022-12-18T07:00:05.147Z,-2.29
2022-12-18T07:02:33.069Z,-2.30
2022-12-18T07:05:07.486Z,-2.32
2022-12-18T07:07:38.049Z,-2.33
2022-12-18T07:10:05.986Z,-2.37
2022-12-18T07:12:33.631Z,-2.38
2022-12-18T07:15:01.282Z,-2.38
2022-12-18T07:17:29.359Z,-2.38
2022-12-18T07:19:56.953Z,-2.38
2022-12-18T07:22:26.755Z,-2.39
2022-12-18T07:24:54.369Z,-2.41
2022-12-18T07:27:22.006Z,-2.42
2022-12-18T07:29:49.623Z,-2.42
2022-12-18T07:32:17.256Z,-2.42
2022-12-18T07:34:44.843Z,-2.43
2022-12-18T07:37:12.507Z,-2.43
2022-12-18T07:39:41.424Z,-2.45
2022-12-18T07:42:26.396Z,-2.44
2022-12-18T07:44:54.630Z,-2.45
2022-12-18T07:47:22.554Z,-2.45
2022-12-18T07:49:50.202Z,-2.43
2022-12-18T07:52:20.316Z,-2.44
2022-12-18T07:54:53.351Z,-2.41
2022-12-18T07:57:48.857Z,-2.40
2022-12-18T08:00:13.397Z,-2.37
2022-12-18T08:02:41.097Z,-2.36
2022-12-18T08:05:10.351Z,-2.35
2022-12-18T08:07:37.984Z,-2.33
2022-12-18T08:10:08.098Z,-2.33
2022-12-18T08:12:35.804Z,-2.32
2022-12-18T08:15:03.442Z,-2.31
2022-12-18T08:17:31.766Z,-2.30
2022-12-18T08:19:59.333Z,-2.30
2022-12-18T08:22:26.985Z,-2.30
2022-12-18T08:24:54.639Z,-2.28
2022-12-18T08:27:30.952Z,-2.29
2022-12-18T08:29:59.008Z,-2.28
2022-12-18T08:32:26.701Z,-2.28
2022-12-18T08:34:54.473Z,-2.28
2022-12-18T08:37:22.181Z,-2.28
2022-12-18T08:39:49.888Z,-2.27
2022-12-18T08:42:46.510Z,-2.26
2022-12-18T08:45:15.699Z,-2.28
2022-12-18T08:47:43.851Z,-2.25
2022-12-18T08:50:12.251Z,-2.22
2022-12-18T08:52:39.860Z,-2.20
2022-12-18T08:55:08.306Z,-2.16
2022-12-18T08:57:35.914Z,-2.13
2022-12-18T09:00:28.483Z,-2.09
2022-12-18T09:02:57.754Z,-2.05
2022-12-18T09:05:25.382Z,-2.01
2022-12-18T09:07:53.015Z,-1.95
2022-12-18T09:10:20.638Z,-1.91
2022-12-18T09:12:48.524Z,-1.87
2022-12-18T09:15:17.088Z,-1.81
2022-12-18T09:17:44.805Z,-1.79
2022-12-18T09:20:13.955Z,-1.74
2022-12-18T09:22:42.768Z,-1.70
2022-12-18T09:25:10.411Z,-1.65
2022-12-18T09:27:38.088Z,-1.61
2022-12-18T09:30:06.598Z,-1.57
2022-12-18T09:32:34.265Z,-1.53
2022-12-18T09:35:02.537Z,-1.50
2022-12-18T09:37:31.534Z,-1.44
2022-12-18T09:40:02.097Z,-1.43
2022-12-18T09:42:29.848Z,-1.36
2022-12-18T09:44:57.761Z,-1.32
2022-12-18T09:47:27.062Z,-1.29
2022-12-18T09:50:00.931Z,-1.25
2022-12-18T09:52:31.094Z,-1.24
2022-12-18T09:55:02.459Z,-1.21
2022-12-18T09:57:32.072Z,-1.19
2022-12-18T10:00:05.968Z,-1.16
2022-12-18T10:02:39.783Z,-1.13
2022-12-18T10:05:11.466Z,-1.12
2022-12-18T10:07:46.309Z,-1.10
2022-12-18T10:10:21.847Z,-1.09
2022-12-18T10:12:59.596Z,-1.08
2022-12-18T10:15:34.890Z,-1.08
2022-12-18T10:18:08.389Z,-1.07
2022-12-18T10:20:39.720Z,-1.08
2022-12-18T10:23:13.937Z,-1.06
2022-12-18T10:25:47.342Z,-1.06
2022-12-18T10:28:15.969Z,-1.05
2022-12-18T10:30:44.619Z,-1.04
2022-12-18T10:33:16.950Z,-1.02
2022-12-18T10:35:45.284Z,-1.01
2022-12-18T10:38:23.639Z,-0.99
2022-12-18T10:40:55.924Z,-0.98
2022-12-18T10:43:25.130Z,-0.94
2022-12-18T10:46:03.463Z,-0.91
2022-12-18T10:48:32.206Z,-0.90
2022-12-18T10:51:15.337Z,-0.88
2022-12-18T10:53:44.702Z,-0.87
2022-12-18T10:56:13.989Z,-0.85
2022-12-18T10:58:42.368Z,-0.82
2022-12-18T11:01:12.241Z,-0.81
2022-12-18T11:03:41.111Z,-0.78
2022-12-18T11:06:10.549Z,-0.76
2022-12-18T11:08:38.855Z,-0.74
2022-12-18T11:11:09.668Z,-0.73
2022-12-18T11:13:38.839Z,-0.70
2022-12-18T11:16:06.789Z,-0.71
2022-12-18T11:18:35.828Z,-0.68
2022-12-18T11:21:08.284Z,-0.64
2022-12-18T11:23:36.443Z,-0.62
2022-12-18T11:26:05.579Z,-0.60
2022-12-18T11:28:43.277Z,-0.57
2022-12-18T11:31:22.090Z,-0.54
2022-12-18T11:34:26.891Z,-0.54
2022-12-18T11:36:44.384Z,-0.52
2022-12-18T11:39:15.997Z,-0.52
2022-12-18T11:42:05.794Z,-0.49
2022-12-18T11:44:40.200Z,-0.49
2022-12-18T11:47:12.623Z,-0.48
2022-12-18T11:49:41.623Z,-0.48
2022-12-18T11:52:16.478Z,-0.48
2022-12-18T11:54:44.236Z,-0.48
2022-12-18T11:57:16.581Z,-0.48
2022-12-18T11:59:51.466Z,-0.47
2022-12-18T12:03:42.233Z,-0.30
2022-12-18T12:06:16.664Z,-0.29
2022-12-18T12:08:59.389Z,-0.27
2022-12-18T12:11:39.464Z,-0.29
2022-12-18T12:14:21.346Z,-0.28
2022-12-18T12:16:57.316Z,-0.30
2022-12-18T12:19:39.807Z,-0.28
2022-12-18T12:22:15.549Z,-0.33
2022-12-18T12:24:54.238Z,-0.31
2022-12-18T12:27:31.000Z,-0.31
2022-12-18T12:30:06.128Z,-0.33
2022-12-18T12:32:50.279Z,-0.33
2022-12-18T12:35:31.636Z,-0.33
2022-12-18T12:38:09.799Z,-0.32
2022-12-18T12:40:55.346Z,-0.33
2022-12-18T12:43:36.843Z,-0.35
2022-12-18T12:46:07.891Z,-0.35
2022-12-18T12:48:45.593Z,-0.34
2022-12-18T12:51:20.180Z,-0.35
2022-12-18T12:53:49.208Z,-0.38
2022-12-18T12:56:20.075Z,-0.37
2022-12-18T12:58:56.835Z,-0.36
2022-12-18T13:01:31.762Z,-0.46
2022-12-18T13:04:11.234Z,-0.39
2022-12-18T13:06:46.336Z,-0.39
2022-12-18T13:09:14.371Z,-0.42
2022-12-18T13:12:01.941Z,-0.43
2022-12-18T13:14:33.123Z,-0.45
2022-12-18T13:17:30.829Z,-0.46
2022-12-18T13:20:08.984Z,-0.45
2022-12-18T13:22:40.100Z,-0.47
2022-12-18T13:25:33.472Z,-0.49
2022-12-18T13:28:13.646Z,-0.50
2022-12-18T13:30:53.439Z,-0.51
2022-12-18T13:34:16.677Z,-0.51
2022-12-18T13:36:34.772Z,-0.57
2022-12-18T13:39:37.367Z,-0.59
2022-12-18T13:43:00.542Z,-0.59
2022-12-18T13:45:47.701Z,-0.59
2022-12-18T13:48:27.919Z,-0.60
2022-12-18T13:51:02.978Z,-0.58
2022-12-18T13:53:36.739Z,-0.58
2022-12-18T13:56:07.938Z,-0.58
2022-12-18T13:58:36.448Z,-0.56
2022-12-18T14:01:05.786Z,-0.56
2022-12-18T14:03:33.993Z,-0.55
2022-12-18T14:06:05.673Z,-0.54
2022-12-18T14:08:41.529Z,-0.54
2022-12-18T14:11:22.209Z,-0.52
2022-12-18T14:13:51.796Z,-0.54
2022-12-18T14:16:20.194Z,-0.52
2022-12-18T14:18:55.559Z,-0.52
2022-12-18T14:21:28.799Z,-0.52
2022-12-18T14:24:07.446Z,-0.49
2022-12-18T14:26:36.738Z,-0.52
2022-12-18T14:29:21.552Z,-0.50
2022-12-18T14:32:13.315Z,-0.52
2022-12-18T14:34:44.724Z,-0.53
2022-12-18T14:37:13.612Z,-0.52
2022-12-18T14:39:41.806Z,-0.53
2022-12-18T14:42:13.835Z,-0.54
2022-12-18T14:45:05.085Z,-0.57
2022-12-18T14:47:29.597Z,-0.58
2022-12-18T14:49:57.507Z,-0.55
2022-12-18T14:52:31.339Z,-0.55
2022-12-18T14:54:59.208Z,-0.58
2022-12-18T14:57:34.771Z,-0.56
2022-12-18T15:00:09.357Z,-0.57
2022-12-18T15:02:38.390Z,-0.58
2022-12-18T15:05:12.902Z,-0.61
2022-12-18T15:07:45.484Z,-0.57
2022-12-18T15:10:16.890Z,-0.59
2022-12-18T15:12:48.388Z,-0.60
2022-12-18T15:15:46.826Z,-0.62
2022-12-18T15:18:17.821Z,-0.64
2022-12-18T15:20:49.224Z,-0.64
2022-12-18T15:23:20.497Z,-0.64
2022-12-18T15:25:50.097Z,-0.65
2022-12-18T15:28:23.982Z,-0.65
2022-12-18T15:31:07.225Z,-0.63
2022-12-18T15:33:38.152Z,-0.66
2022-12-18T15:36:10.886Z,-0.66
2022-12-18T15:38:38.801Z,-0.68
2022-12-18T15:41:10.245Z,-0.66
2022-12-18T15:43:43.043Z,-0.66
2022-12-18T15:46:14.354Z,-0.65
2022-12-18T15:48:44.205Z,-0.65
2022-12-18T15:51:18.226Z,-0.65
2022-12-18T15:53:47.274Z,-0.66
2022-12-18T15:56:34.747Z,-0.66
2022-12-18T15:59:06.991Z,-0.68
2022-12-18T16:01:38.295Z,-0.68
2022-12-18T16:04:12.684Z,-0.69
2022-12-18T16:07:12.869Z,-0.69
2022-12-18T16:09:28.644Z,-0.70
2022-12-18T16:11:56.623Z,-0.70
2022-12-18T16:14:27.984Z,-0.70
2022-12-18T16:16:58.345Z,-0.70
2022-12-18T16:19:26.899Z,-0.72
2022-12-18T16:21:56.879Z,-0.72
2022-12-18T16:24:26.948Z,-0.73
2022-12-18T16:26:55.615Z,-0.72
2022-12-18T16:29:27.985Z,-0.74
2022-12-18T16:31:55.967Z,-0.76
2022-12-18T16:34:28.804Z,-0.75
2022-12-18T16:37:03.347Z,-0.78
2022-12-18T16:39:34.969Z,-0.78
2022-12-18T16:42:05.757Z,-0.78
2022-12-18T16:44:36.002Z,-0.78
2022-12-18T16:47:04.321Z,-0.80
2022-12-18T16:49:32.724Z,-0.80
2022-12-18T16:52:00.711Z,-0.81
2022-12-18T16:54:30.399Z,-0.82
2022-12-18T16:56:58.776Z,-0.82
2022-12-18T16:59:27.550Z,-0.82
2022-12-18T17:01:57.477Z,-0.81
2022-12-18T17:04:25.416Z,-0.82
2022-12-18T17:06:53.936Z,-0.83
2022-12-18T17:09:25.316Z,-0.81
2022-12-18T17:11:54.315Z,-0.82
2022-12-18T17:14:24.152Z,-0.83
2022-12-18T17:17:19.146Z,-0.84
2022-12-18T17:19:41.702Z,-0.84
2022-12-18T17:22:09.539Z,-0.85
2022-12-18T17:24:37.527Z,-0.85
2022-12-18T17:27:06.004Z,-0.86
2022-12-18T17:29:33.978Z,-0.86
2022-12-18T17:32:01.796Z,-0.85
2022-12-18T17:34:29.800Z,-0.85
2022-12-18T17:36:59.670Z,-0.84
2022-12-18T17:39:28.704Z,-0.86
2022-12-18T17:41:56.795Z,-0.89
2022-12-18T17:44:24.634Z,-0.88
2022-12-18T17:46:52.478Z,-0.88
2022-12-18T17:49:20.356Z,-0.88
2022-12-18T17:51:48.474Z,-0.88
2022-12-18T17:54:17.674Z,-0.88
2022-12-18T17:56:45.463Z,-0.91
2022-12-18T17:59:13.500Z,-0.90
2022-12-18T18:01:44.727Z,-0.93
2022-12-18T18:04:13.626Z,-0.93
2022-12-18T18:06:41.649Z,-0.92
2022-12-18T18:09:13.420Z,-0.92
2022-12-18T18:12:04.372Z,-0.93
2022-12-18T18:14:33.008Z,-0.96
2022-12-18T18:17:04.039Z,-0.97
2022-12-18T18:19:33.478Z,-0.97
2022-12-18T18:22:01.758Z,-0.96
2022-12-18T18:24:30.953Z,-0.99
2022-12-18T18:27:00.638Z,-0.99
2022-12-18T18:29:31.136Z,-1.00
2022-12-18T18:31:59.302Z,-0.99
2022-12-18T18:34:30.431Z,-1.01
2022-12-18T18:36:58.348Z,-1.01
2022-12-18T18:39:26.595Z,-1.00
2022-12-18T18:41:54.639Z,-1.03
2022-12-18T18:44:25.720Z,-1.03
2022-12-18T18:46:54.953Z,-1.04
2022-12-18T18:49:24.140Z,-1.05
2022-12-18T18:51:52.116Z,-1.04
2022-12-18T18:54:20.879Z,-1.05
2022-12-18T18:59:39.131Z,-1.06
2022-12-18T19:02:07.583Z,-1.06
2022-12-18T19:04:36.549Z,-1.05
2022-12-18T19:07:08.230Z,-1.07
2022-12-18T19:09:37.496Z,-1.06
2022-12-18T19:12:23.180Z,-1.05
2022-12-18T19:14:52.421Z,-1.06
2022-12-18T19:17:23.695Z,-1.06
2022-12-18T19:19:55.856Z,-1.04
2022-12-18T19:22:24.308Z,-1.05
2022-12-18T19:24:52.419Z,-1.03
2022-12-18T19:27:20.291Z,-1.02
2022-12-18T19:29:50.524Z,-1.04
2022-12-18T19:32:19.786Z,-1.00
2022-12-18T19:34:48.213Z,-1.01
2022-12-18T19:37:16.876Z,-1.01
2022-12-18T19:39:45.639Z,-1.01
2022-12-18T19:42:13.533Z,-0.99
2022-12-18T19:44:41.281Z,-1.00
2022-12-18T19:47:09.065Z,-0.98
2022-12-18T19:49:38.646Z,-0.97
2022-12-18T19:52:06.671Z,-0.99
2022-12-18T19:54:34.643Z,-0.97
2022-12-18T19:57:02.586Z,-0.96
2022-12-18T19:59:30.427Z,-0.95
2022-12-18T20:01:58.434Z,-0.94
2022-12-18T20:04:26.452Z,-0.94
2022-12-18T20:06:55.997Z,-0.91
2022-12-18T20:09:23.954Z,-0.90
2022-12-18T20:11:53.213Z,-0.91
2022-12-18T20:14:22.912Z,-0.88
2022-12-18T20:16:52.332Z,-0.89
2022-12-18T20:19:21.497Z,-0.87
2022-12-18T20:21:49.566Z,-0.85
2022-12-18T20:24:18.713Z,-0.84
2022-12-18T20:26:46.872Z,-0.83
2022-12-18T20:29:14.941Z,-0.82
2022-12-18T20:31:43.135Z,-0.81
2022-12-18T20:34:11.199Z,-0.81
2022-12-18T20:36:39.830Z,-0.79
2022-12-18T20:39:10.015Z,-0.79
2022-12-18T20:41:40.851Z,-0.76
2022-12-18T20:44:23.040Z,-0.75
2022-12-18T20:46:54.349Z,-0.76
2022-12-18T20:49:22.703Z,-0.75
2022-12-18T20:51:52.349Z,-0.74
2022-12-18T20:54:20.554Z,-0.75
2022-12-18T20:56:49.896Z,-0.72
2022-12-18T20:59:17.897Z,-0.72
2022-12-18T21:01:49.020Z,-0.73
2022-12-18T21:04:18.277Z,-0.71
2022-12-18T21:06:50.980Z,-0.71
2022-12-18T21:09:19.494Z,-0.71
2022-12-18T21:12:04.593Z,-0.68
2022-12-18T21:14:33.940Z,-0.67
2022-12-18T21:17:02.317Z,-0.67
2022-12-18T21:19:31.130Z,-0.65
2022-12-18T21:21:59.606Z,-0.64
2022-12-18T21:24:28.202Z,-0.63
2022-12-18T21:26:59.997Z,-0.63
2022-12-18T21:29:27.942Z,-0.61
2022-12-18T21:31:57.258Z,-0.59
2022-12-18T21:34:27.304Z,-0.59
2022-12-18T21:36:56.461Z,-0.59
2022-12-18T21:39:25.360Z,-0.60
2022-12-18T21:42:11.558Z,-0.59
2022-12-18T21:44:42.088Z,-0.59
2022-12-18T21:47:20.889Z,-0.57
2022-12-18T21:49:50.414Z,-0.59
2022-12-18T21:52:18.258Z,-0.57
2022-12-18T21:54:46.105Z,-0.57
2022-12-18T21:57:14.328Z,-0.57
2022-12-18T21:59:43.801Z,-0.54
2022-12-18T22:02:15.641Z,-0.54
2022-12-18T22:04:44.642Z,-0.57
2022-12-18T22:07:13.651Z,-0.54
2022-12-18T22:09:41.584Z,-0.55
2022-12-18T22:12:11.587Z,-0.54
2022-12-18T22:14:39.517Z,-0.55
2022-12-18T22:17:07.327Z,-0.56
2022-12-18T22:19:42.807Z,-0.54
2022-12-18T22:22:11.152Z,-0.55
2022-12-18T22:24:39.136Z,-0.53
2022-12-18T22:27:07.021Z,-0.53
2022-12-18T22:29:58.153Z,-0.53
2022-12-18T22:32:31.179Z,-0.56
2022-12-18T22:35:06.244Z,-0.54
2022-12-18T22:37:36.100Z,-0.54
2022-12-18T22:40:07.523Z,-0.54
2022-12-18T22:42:36.432Z,-0.55
2022-12-18T22:45:04.378Z,-0.54
2022-12-18T22:47:32.460Z,-0.53
2022-12-18T22:50:01.566Z,-0.51
2022-12-18T22:52:29.392Z,-0.53
2022-12-18T22:54:57.151Z,-0.52
2022-12-18T22:57:25.753Z,-0.49
2022-12-18T22:59:53.471Z,-0.52
2022-12-18T23:02:21.469Z,-0.50
2022-12-18T23:04:49.612Z,-0.50
2022-12-18T23:07:19.030Z,-0.50
2022-12-18T23:09:47.038Z,-0.51
2022-12-18T23:12:17.880Z,-0.51
2022-12-18T23:14:47.138Z,-0.51
2022-12-18T23:17:15.058Z,-0.49
2022-12-18T23:19:48.794Z,-0.48
2022-12-18T23:22:18.639Z,-0.49
2022-12-18T23:24:47.309Z,-0.49
2022-12-18T23:27:15.209Z,-0.48
2022-12-18T23:29:43.000Z,-0.47
2022-12-18T23:32:13.146Z,-0.47
2022-12-18T23:34:41.082Z,-0.47
2022-12-18T23:37:08.896Z,-0.46
2022-12-18T23:39:38.050Z,-0.44
2022-12-18T23:42:06.048Z,-0.45
2022-12-18T23:44:34.148Z,-0.46
2022-12-18T23:47:01.985Z,-0.44
2022-12-18T23:49:29.745Z,-0.44
2022-12-18T23:51:58.037Z,-0.42
2022-12-18T23:54:32.904Z,-0.41
2022-12-18T23:57:03.185Z,-0.39
2022-12-18T23:59:30.908Z,-0.43
